sensor_id;sensor_type;location;lat;lon;timestamp;temperature;humidity
67163;DHT22;54092;53.088;8.850;2023-12-20T00:01:21;5.90;99.90
67163;DHT22;54092;53.088;8.850;2023-12-20T00:03:47;5.90;99.90
67163;DHT22;54092;53.088;8.850;2023-12-20T00:06:12;5.90;99.90
67163;DHT22;54092;53.088;8.850;2023-12-20T00:08:38;5.90;99.90
67163;DHT22;54092;53.088;8.850;2023-12-20T00:11:03;5.80;99.90
67163;DHT22;54092;53.088;8.850;2023-12-20T00:13:29;5.80;99.90
67163;DHT22;54092;53.088;8.850;2023-12-20T00:15:54;5.80;99.90
67163;DHT22;54092;53.088;8.850;2023-12-20T00:18:20;5.80;99.90
67163;DHT22;54092;53.088;8.850;2023-12-20T00:20:45;5.70;99.90
67163;DHT22;54092;53.088;8.850;2023-12-20T00:23:11;5.70;99.90
67163;DHT22;54092;53.088;8.850;2023-12-20T00:25:36;5.70;99.90
67163;DHT22;54092;53.088;8.850;2023-12-20T00:28:02;5.70;99.90
67163;DHT22;54092;53.088;8.850;2023-12-20T00:30:28;5.70;99.90
67163;DHT22;54092;53.088;8.850;2023-12-20T00:32:54;5.70;99.90
67163;DHT22;54092;53.088;8.850;2023-12-20T00:35:20;5.70;99.90
67163;DHT22;54092;53.088;8.850;2023-12-20T00:37:45;5.70;99.90
67163;DHT22;54092;53.088;8.850;2023-12-20T00:40:11;5.70;99.90
67163;DHT22;54092;53.088;8.850;2023-12-20T00:42:37;5.70;99.90
67163;DHT22;54092;53.088;8.850;2023-12-20T00:45:03;5.70;99.90
67163;DHT22;54092;53.088;8.850;2023-12-20T00:47:30;5.70;99.90
67163;DHT22;54092;53.088;8.850;2023-12-20T00:49:56;5.80;99.90
67163;DHT22;54092;53.088;8.850;2023-12-20T00:52:21;5.80;99.90
67163;DHT22;54092;53.088;8.850;2023-12-20T00:54:48;5.80;99.90
67163;DHT22;54092;53.088;8.850;2023-12-20T00:57:13;5.80;99.90
67163;DHT22;54092;53.088;8.850;2023-12-20T00:59:39;5.80;99.90
67163;DHT22;54092;53.088;8.850;2023-12-20T01:02:04;5.70;99.90
67163;DHT22;54092;53.088;8.850;2023-12-20T01:04:30;5.70;99.90
67163;DHT22;54092;53.088;8.850;2023-12-20T01:06:55;5.70;99.90
67163;DHT22;54092;53.088;8.850;2023-12-20T01:09:21;5.70;99.90
67163;DHT22;54092;53.088;8.850;2023-12-20T01:11:49;5.70;99.90
67163;DHT22;54092;53.088;8.850;2023-12-20T01:14:14;5.70;99.90
67163;DHT22;54092;53.088;8.850;2023-12-20T01:16:40;5.70;99.90
67163;DHT22;54092;53.088;8.850;2023-12-20T01:19:05;5.70;99.90
67163;DHT22;54092;53.088;8.850;2023-12-20T01:21:32;5.70;99.90
67163;DHT22;54092;53.088;8.850;2023-12-20T01:23:57;5.70;99.90
67163;DHT22;54092;53.088;8.850;2023-12-20T01:26:23;5.70;99.90
67163;DHT22;54092;53.088;8.850;2023-12-20T01:28:48;5.60;99.90
67163;DHT22;54092;53.088;8.850;2023-12-20T01:31:14;5.70;99.90
67163;DHT22;54092;53.088;8.850;2023-12-20T01:33:39;5.60;99.90
67163;DHT22;54092;53.088;8.850;2023-12-20T01:36:05;5.60;99.90
67163;DHT22;54092;53.088;8.850;2023-12-20T01:38:30;5.60;99.90
67163;DHT22;54092;53.088;8.850;2023-12-20T01:40:56;5.60;99.90
67163;DHT22;54092;53.088;8.850;2023-12-20T01:43:21;5.60;99.90
67163;DHT22;54092;53.088;8.850;2023-12-20T01:45:47;5.60;99.90
67163;DHT22;54092;53.088;8.850;2023-12-20T01:48:13;5.60;99.90
67163;DHT22;54092;53.088;8.850;2023-12-20T01:50:41;5.70;99.90
67163;DHT22;54092;53.088;8.850;2023-12-20T01:53:07;5.80;99.90
67163;DHT22;54092;53.088;8.850;2023-12-20T01:55:35;5.80;99.90
67163;DHT22;54092;53.088;8.850;2023-12-20T01:58:01;5.80;99.90
67163;DHT22;54092;53.088;8.850;2023-12-20T02:00:28;5.80;99.90
67163;DHT22;54092;53.088;8.850;2023-12-20T02:02:54;5.80;99.90
67163;DHT22;54092;53.088;8.850;2023-12-20T02:05:23;5.80;99.90
67163;DHT22;54092;53.088;8.850;2023-12-20T02:07:49;5.80;99.90
67163;DHT22;54092;53.088;8.850;2023-12-20T02:10:15;5.80;99.90
67163;DHT22;54092;53.088;8.850;2023-12-20T02:12:41;5.70;99.90
67163;DHT22;54092;53.088;8.850;2023-12-20T02:15:07;5.70;99.90
67163;DHT22;54092;53.088;8.850;2023-12-20T02:17:32;5.80;99.90
67163;DHT22;54092;53.088;8.850;2023-12-20T02:19:58;5.80;99.90
67163;DHT22;54092;53.088;8.850;2023-12-20T02:22:24;5.70;99.90
67163;DHT22;54092;53.088;8.850;2023-12-20T02:24:49;5.70;99.90
67163;DHT22;54092;53.088;8.850;2023-12-20T02:27:15;5.70;99.90
67163;DHT22;54092;53.088;8.850;2023-12-20T02:29:43;5.70;99.90
67163;DHT22;54092;53.088;8.850;2023-12-20T02:32:08;5.60;99.90
67163;DHT22;54092;53.088;8.850;2023-12-20T02:34:34;5.60;99.90
67163;DHT22;54092;53.088;8.850;2023-12-20T02:36:59;5.60;99.90
67163;DHT22;54092;53.088;8.850;2023-12-20T02:39:25;5.60;99.90
67163;DHT22;54092;53.088;8.850;2023-12-20T02:41:50;5.60;99.90
67163;DHT22;54092;53.088;8.850;2023-12-20T02:44:16;5.70;99.90
67163;DHT22;54092;53.088;8.850;2023-12-20T02:46:41;5.70;99.90
67163;DHT22;54092;53.088;8.850;2023-12-20T02:49:07;5.70;99.90
67163;DHT22;54092;53.088;8.850;2023-12-20T02:51:33;5.60;99.90
67163;DHT22;54092;53.088;8.850;2023-12-20T02:53:58;5.70;99.90
67163;DHT22;54092;53.088;8.850;2023-12-20T02:56:24;5.70;99.90
67163;DHT22;54092;53.088;8.850;2023-12-20T02:58:49;5.80;99.90
67163;DHT22;54092;53.088;8.850;2023-12-20T03:01:14;5.80;99.90
67163;DHT22;54092;53.088;8.850;2023-12-20T03:03:40;5.90;99.90
67163;DHT22;54092;53.088;8.850;2023-12-20T03:06:05;6.00;99.90
67163;DHT22;54092;53.088;8.850;2023-12-20T03:08:31;6.00;99.90
67163;DHT22;54092;53.088;8.850;2023-12-20T03:10:58;6.00;99.90
67163;DHT22;54092;53.088;8.850;2023-12-20T03:13:23;6.00;99.90
67163;DHT22;54092;53.088;8.850;2023-12-20T03:15:49;6.00;99.90
67163;DHT22;54092;53.088;8.850;2023-12-20T03:18:14;6.00;99.90
67163;DHT22;54092;53.088;8.850;2023-12-20T03:20:40;6.00;99.90
67163;DHT22;54092;53.088;8.850;2023-12-20T03:23:07;6.00;99.90
67163;DHT22;54092;53.088;8.850;2023-12-20T03:25:32;6.00;99.90
67163;DHT22;54092;53.088;8.850;2023-12-20T03:27:59;6.00;99.90
67163;DHT22;54092;53.088;8.850;2023-12-20T03:30:24;6.00;99.90
67163;DHT22;54092;53.088;8.850;2023-12-20T03:32:50;6.10;99.90
67163;DHT22;54092;53.088;8.850;2023-12-20T03:35:15;6.10;99.90
67163;DHT22;54092;53.088;8.850;2023-12-20T03:37:41;6.10;99.90
67163;DHT22;54092;53.088;8.850;2023-12-20T03:40:07;6.10;99.90
67163;DHT22;54092;53.088;8.850;2023-12-20T03:42:32;6.10;99.90
67163;DHT22;54092;53.088;8.850;2023-12-20T03:44:57;6.10;99.90
67163;DHT22;54092;53.088;8.850;2023-12-20T03:47:23;6.10;99.90
67163;DHT22;54092;53.088;8.850;2023-12-20T03:49:48;6.10;99.90
67163;DHT22;54092;53.088;8.850;2023-12-20T03:52:14;6.10;99.90
67163;DHT22;54092;53.088;8.850;2023-12-20T03:54:40;6.10;99.90
67163;DHT22;54092;53.088;8.850;2023-12-20T03:57:07;6.10;99.90
67163;DHT22;54092;53.088;8.850;2023-12-20T03:59:36;6.20;99.90
67163;DHT22;54092;53.088;8.850;2023-12-20T04:02:03;6.20;99.90
67163;DHT22;54092;53.088;8.850;2023-12-20T04:04:28;6.20;99.90
67163;DHT22;54092;53.088;8.850;2023-12-20T04:06:54;6.20;99.90
67163;DHT22;54092;53.088;8.850;2023-12-20T04:09:19;6.20;99.90
67163;DHT22;54092;53.088;8.850;2023-12-20T04:11:45;6.20;99.90
67163;DHT22;54092;53.088;8.850;2023-12-20T04:14:10;6.20;99.90
67163;DHT22;54092;53.088;8.850;2023-12-20T04:16:36;6.20;99.90
67163;DHT22;54092;53.088;8.850;2023-12-20T04:19:02;6.20;99.90
67163;DHT22;54092;53.088;8.850;2023-12-20T04:21:27;6.20;99.90
67163;DHT22;54092;53.088;8.850;2023-12-20T04:23:53;6.20;99.90
67163;DHT22;54092;53.088;8.850;2023-12-20T04:26:18;6.20;99.90
67163;DHT22;54092;53.088;8.850;2023-12-20T04:28:44;6.20;99.90
67163;DHT22;54092;53.088;8.850;2023-12-20T04:31:09;6.20;99.90
67163;DHT22;54092;53.088;8.850;2023-12-20T04:33:35;6.20;99.90
67163;DHT22;54092;53.088;8.850;2023-12-20T04:36:00;6.30;99.90
67163;DHT22;54092;53.088;8.850;2023-12-20T04:38:26;6.20;99.90
67163;DHT22;54092;53.088;8.850;2023-12-20T04:40:51;6.30;99.90
67163;DHT22;54092;53.088;8.850;2023-12-20T04:43:17;6.30;99.90
67163;DHT22;54092;53.088;8.850;2023-12-20T04:45:43;6.30;99.90
67163;DHT22;54092;53.088;8.850;2023-12-20T04:48:08;6.30;99.90
67163;DHT22;54092;53.088;8.850;2023-12-20T04:50:34;6.20;99.90
67163;DHT22;54092;53.088;8.850;2023-12-20T04:52:59;6.20;99.90
67163;DHT22;54092;53.088;8.850;2023-12-20T04:55:25;6.20;99.90
67163;DHT22;54092;53.088;8.850;2023-12-20T04:57:50;6.30;99.90
67163;DHT22;54092;53.088;8.850;2023-12-20T05:00:16;6.30;99.90
67163;DHT22;54092;53.088;8.850;2023-12-20T05:02:41;6.30;99.90
67163;DHT22;54092;53.088;8.850;2023-12-20T05:05:07;6.30;99.90
67163;DHT22;54092;53.088;8.850;2023-12-20T05:07:33;6.30;99.90
67163;DHT22;54092;53.088;8.850;2023-12-20T05:09:58;6.30;99.90
67163;DHT22;54092;53.088;8.850;2023-12-20T05:12:24;6.30;99.90
67163;DHT22;54092;53.088;8.850;2023-12-20T05:14:50;6.30;99.90
67163;DHT22;54092;53.088;8.850;2023-12-20T05:17:16;6.30;99.90
67163;DHT22;54092;53.088;8.850;2023-12-20T05:19:41;6.30;99.90
67163;DHT22;54092;53.088;8.850;2023-12-20T05:22:07;6.30;99.90
67163;DHT22;54092;53.088;8.850;2023-12-20T05:24:32;6.30;99.90
67163;DHT22;54092;53.088;8.850;2023-12-20T05:26:58;6.40;99.90
67163;DHT22;54092;53.088;8.850;2023-12-20T05:29:23;6.40;99.90
67163;DHT22;54092;53.088;8.850;2023-12-20T05:31:49;6.40;99.90
67163;DHT22;54092;53.088;8.850;2023-12-20T05:34:14;6.30;99.90
67163;DHT22;54092;53.088;8.850;2023-12-20T05:36:40;6.30;99.90
67163;DHT22;54092;53.088;8.850;2023-12-20T05:39:06;6.30;99.90
67163;DHT22;54092;53.088;8.850;2023-12-20T05:41:33;6.30;99.90
67163;DHT22;54092;53.088;8.850;2023-12-20T05:43:58;6.30;99.90
67163;DHT22;54092;53.088;8.850;2023-12-20T05:46:24;6.20;99.90
67163;DHT22;54092;53.088;8.850;2023-12-20T05:48:50;6.20;99.90
67163;DHT22;54092;53.088;8.850;2023-12-20T05:51:17;6.30;99.90
67163;DHT22;54092;53.088;8.850;2023-12-20T05:53:42;6.40;99.90
67163;DHT22;54092;53.088;8.850;2023-12-20T05:56:08;6.40;99.90
67163;DHT22;54092;53.088;8.850;2023-12-20T05:58:33;6.40;99.90
67163;DHT22;54092;53.088;8.850;2023-12-20T06:00:59;6.40;99.90
67163;DHT22;54092;53.088;8.850;2023-12-20T06:03:24;6.40;99.90
67163;DHT22;54092;53.088;8.850;2023-12-20T06:05:50;6.50;99.90
67163;DHT22;54092;53.088;8.850;2023-12-20T06:08:15;6.50;99.90
67163;DHT22;54092;53.088;8.850;2023-12-20T06:10:41;6.50;99.90
67163;DHT22;54092;53.088;8.850;2023-12-20T06:13:06;6.50;99.90
67163;DHT22;54092;53.088;8.850;2023-12-20T06:15:32;6.40;99.90
67163;DHT22;54092;53.088;8.850;2023-12-20T06:17:58;6.40;99.90
67163;DHT22;54092;53.088;8.850;2023-12-20T06:20:23;6.40;99.90
67163;DHT22;54092;53.088;8.850;2023-12-20T06:22:49;6.50;99.90
67163;DHT22;54092;53.088;8.850;2023-12-20T06:25:15;6.50;99.90
67163;DHT22;54092;53.088;8.850;2023-12-20T06:27:40;6.60;99.90
67163;DHT22;54092;53.088;8.850;2023-12-20T06:30:07;6.60;99.90
67163;DHT22;54092;53.088;8.850;2023-12-20T06:32:34;6.60;99.90
67163;DHT22;54092;53.088;8.850;2023-12-20T06:35:00;6.70;99.90
67163;DHT22;54092;53.088;8.850;2023-12-20T06:37:25;6.70;99.90
67163;DHT22;54092;53.088;8.850;2023-12-20T06:39:51;6.70;99.90
67163;DHT22;54092;53.088;8.850;2023-12-20T06:42:17;6.80;99.90
67163;DHT22;54092;53.088;8.850;2023-12-20T06:44:42;6.80;99.90
67163;DHT22;54092;53.088;8.850;2023-12-20T06:47:08;6.90;99.90
67163;DHT22;54092;53.088;8.850;2023-12-20T06:49:33;6.90;99.90
67163;DHT22;54092;53.088;8.850;2023-12-20T06:51:59;6.90;99.90
67163;DHT22;54092;53.088;8.850;2023-12-20T06:54:24;6.80;99.90
67163;DHT22;54092;53.088;8.850;2023-12-20T06:56:50;6.80;99.90
67163;DHT22;54092;53.088;8.850;2023-12-20T06:59:15;6.80;99.90
67163;DHT22;54092;53.088;8.850;2023-12-20T07:01:41;6.80;99.90
67163;DHT22;54092;53.088;8.850;2023-12-20T07:04:06;6.90;99.90
67163;DHT22;54092;53.088;8.850;2023-12-20T07:06:32;6.90;99.90
67163;DHT22;54092;53.088;8.850;2023-12-20T07:08:57;6.90;99.90
67163;DHT22;54092;53.088;8.850;2023-12-20T07:11:23;6.90;99.90
67163;DHT22;54092;53.088;8.850;2023-12-20T07:13:49;6.90;99.90
67163;DHT22;54092;53.088;8.850;2023-12-20T07:16:15;6.90;99.90
67163;DHT22;54092;53.088;8.850;2023-12-20T07:18:40;6.90;99.90
67163;DHT22;54092;53.088;8.850;2023-12-20T07:21:06;6.90;99.90
67163;DHT22;54092;53.088;8.850;2023-12-20T07:23:33;7.00;99.90
67163;DHT22;54092;53.088;8.850;2023-12-20T07:25:59;6.90;99.90
67163;DHT22;54092;53.088;8.850;2023-12-20T07:28:24;6.90;99.90
67163;DHT22;54092;53.088;8.850;2023-12-20T07:30:50;7.00;99.90
67163;DHT22;54092;53.088;8.850;2023-12-20T07:33:15;7.00;99.90
67163;DHT22;54092;53.088;8.850;2023-12-20T07:35:41;7.00;99.90
67163;DHT22;54092;53.088;8.850;2023-12-20T07:38:06;7.00;99.90
67163;DHT22;54092;53.088;8.850;2023-12-20T07:40:32;7.10;99.90
67163;DHT22;54092;53.088;8.850;2023-12-20T07:42:57;7.10;99.90
67163;DHT22;54092;53.088;8.850;2023-12-20T07:45:23;7.10;99.90
67163;DHT22;54092;53.088;8.850;2023-12-20T07:47:49;7.10;99.90
67163;DHT22;54092;53.088;8.850;2023-12-20T07:50:15;7.10;99.90
67163;DHT22;54092;53.088;8.850;2023-12-20T07:52:40;7.10;99.90
67163;DHT22;54092;53.088;8.850;2023-12-20T07:55:06;7.10;99.90
67163;DHT22;54092;53.088;8.850;2023-12-20T07:57:32;7.10;99.90
67163;DHT22;54092;53.088;8.850;2023-12-20T07:59:58;7.10;99.90
67163;DHT22;54092;53.088;8.850;2023-12-20T08:02:23;7.00;99.90
67163;DHT22;54092;53.088;8.850;2023-12-20T08:04:49;7.00;99.90
67163;DHT22;54092;53.088;8.850;2023-12-20T08:07:14;7.00;99.90
67163;DHT22;54092;53.088;8.850;2023-12-20T08:09:40;7.00;99.90
67163;DHT22;54092;53.088;8.850;2023-12-20T08:12:05;7.00;99.90
67163;DHT22;54092;53.088;8.850;2023-12-20T08:14:31;7.00;99.90
67163;DHT22;54092;53.088;8.850;2023-12-20T08:16:57;7.00;99.90
67163;DHT22;54092;53.088;8.850;2023-12-20T08:19:22;7.00;99.90
67163;DHT22;54092;53.088;8.850;2023-12-20T08:21:48;7.10;99.90
67163;DHT22;54092;53.088;8.850;2023-12-20T08:24:14;7.10;99.90
67163;DHT22;54092;53.088;8.850;2023-12-20T08:26:39;7.20;99.90
67163;DHT22;54092;53.088;8.850;2023-12-20T08:29:04;7.20;99.90
67163;DHT22;54092;53.088;8.850;2023-12-20T08:31:30;7.30;99.90
67163;DHT22;54092;53.088;8.850;2023-12-20T08:33:56;7.30;99.90
67163;DHT22;54092;53.088;8.850;2023-12-20T08:36:22;7.30;99.90
67163;DHT22;54092;53.088;8.850;2023-12-20T08:38:48;7.30;99.90
67163;DHT22;54092;53.088;8.850;2023-12-20T08:41:14;7.30;99.90
67163;DHT22;54092;53.088;8.850;2023-12-20T08:43:39;7.30;99.90
67163;DHT22;54092;53.088;8.850;2023-12-20T08:46:06;7.30;99.90
67163;DHT22;54092;53.088;8.850;2023-12-20T08:48:31;7.30;99.90
67163;DHT22;54092;53.088;8.850;2023-12-20T08:50:57;7.30;99.90
67163;DHT22;54092;53.088;8.850;2023-12-20T08:53:22;7.30;99.90
67163;DHT22;54092;53.088;8.850;2023-12-20T08:55:48;7.40;99.90
67163;DHT22;54092;53.088;8.850;2023-12-20T08:58:14;7.50;99.90
67163;DHT22;54092;53.088;8.850;2023-12-20T09:00:39;7.50;99.90
67163;DHT22;54092;53.088;8.850;2023-12-20T09:03:05;7.50;99.90
67163;DHT22;54092;53.088;8.850;2023-12-20T09:05:31;7.40;99.90
67163;DHT22;54092;53.088;8.850;2023-12-20T09:07:56;7.20;99.90
67163;DHT22;54092;53.088;8.850;2023-12-20T09:10:22;7.20;99.90
67163;DHT22;54092;53.088;8.850;2023-12-20T09:12:51;7.20;99.90
67163;DHT22;54092;53.088;8.850;2023-12-20T09:15:17;7.10;99.90
67163;DHT22;54092;53.088;8.850;2023-12-20T09:17:42;7.10;99.90
67163;DHT22;54092;53.088;8.850;2023-12-20T09:20:09;7.10;99.90
67163;DHT22;54092;53.088;8.850;2023-12-20T09:22:35;7.00;99.90
67163;DHT22;54092;53.088;8.850;2023-12-20T09:25:00;6.90;99.90
67163;DHT22;54092;53.088;8.850;2023-12-20T09:27:27;6.90;99.90
67163;DHT22;54092;53.088;8.850;2023-12-20T09:29:53;7.00;99.90
67163;DHT22;54092;53.088;8.850;2023-12-20T09:32:19;7.10;99.90
67163;DHT22;54092;53.088;8.850;2023-12-20T09:34:46;7.00;99.90
67163;DHT22;54092;53.088;8.850;2023-12-20T09:37:11;7.00;99.90
67163;DHT22;54092;53.088;8.850;2023-12-20T09:39:37;7.00;99.90
67163;DHT22;54092;53.088;8.850;2023-12-20T09:42:03;6.90;99.90
67163;DHT22;54092;53.088;8.850;2023-12-20T09:44:29;6.90;99.90
67163;DHT22;54092;53.088;8.850;2023-12-20T09:46:56;6.90;99.90
67163;DHT22;54092;53.088;8.850;2023-12-20T09:49:22;6.80;99.90
67163;DHT22;54092;53.088;8.850;2023-12-20T09:51:50;6.90;99.90
67163;DHT22;54092;53.088;8.850;2023-12-20T09:54:17;6.20;99.90
67163;DHT22;54092;53.088;8.850;2023-12-20T09:56:44;5.70;99.90
67163;DHT22;54092;53.088;8.850;2023-12-20T09:59:09;5.50;99.90
67163;DHT22;54092;53.088;8.850;2023-12-20T10:01:35;5.40;99.90
67163;DHT22;54092;53.088;8.850;2023-12-20T10:04:05;5.40;99.90
67163;DHT22;54092;53.088;8.850;2023-12-20T10:06:40;5.40;99.90
67163;DHT22;54092;53.088;8.850;2023-12-20T10:09:06;5.40;99.90
67163;DHT22;54092;53.088;8.850;2023-12-20T10:11:32;5.40;99.90
67163;DHT22;54092;53.088;8.850;2023-12-20T10:14:01;5.40;99.90
67163;DHT22;54092;53.088;8.850;2023-12-20T10:16:27;5.40;99.90
67163;DHT22;54092;53.088;8.850;2023-12-20T10:18:54;5.40;99.90
67163;DHT22;54092;53.088;8.850;2023-12-20T10:21:19;5.40;99.90
67163;DHT22;54092;53.088;8.850;2023-12-20T10:23:45;5.40;99.90
67163;DHT22;54092;53.088;8.850;2023-12-20T10:26:19;5.40;99.90
67163;DHT22;54092;53.088;8.850;2023-12-20T10:28:45;5.40;99.90
67163;DHT22;54092;53.088;8.850;2023-12-20T10:31:28;5.50;99.90
67163;DHT22;54092;53.088;8.850;2023-12-20T10:33:59;5.50;99.90
67163;DHT22;54092;53.088;8.850;2023-12-20T10:36:26;5.50;99.90
67163;DHT22;54092;53.088;8.850;2023-12-20T10:38:55;5.50;99.90
67163;DHT22;54092;53.088;8.850;2023-12-20T10:43:51;5.60;99.90
67163;DHT22;54092;53.088;8.850;2023-12-20T10:46:19;5.60;99.90
67163;DHT22;54092;53.088;8.850;2023-12-20T10:48:45;5.70;99.90
67163;DHT22;54092;53.088;8.850;2023-12-20T10:51:13;5.80;99.90
67163;DHT22;54092;53.088;8.850;2023-12-20T10:53:40;5.80;99.90
67163;DHT22;54092;53.088;8.850;2023-12-20T10:56:07;5.90;99.90
67163;DHT22;54092;53.088;8.850;2023-12-20T10:58:33;5.90;99.90
67163;DHT22;54092;53.088;8.850;2023-12-20T11:01:01;6.00;99.90
67163;DHT22;54092;53.088;8.850;2023-12-20T11:03:27;6.10;99.90
67163;DHT22;54092;53.088;8.850;2023-12-20T11:06:05;6.40;99.90
67163;DHT22;54092;53.088;8.850;2023-12-20T11:08:38;7.00;99.90
67163;DHT22;54092;53.088;8.850;2023-12-20T11:14:08;8.30;99.90
67163;DHT22;54092;53.088;8.850;2023-12-20T11:16:37;8.60;99.90
67163;DHT22;54092;53.088;8.850;2023-12-20T11:19:06;8.70;99.90
67163;DHT22;54092;53.088;8.850;2023-12-20T11:21:32;8.70;99.90
67163;DHT22;54092;53.088;8.850;2023-12-20T11:23:59;8.80;99.90
67163;DHT22;54092;53.088;8.850;2023-12-20T11:26:28;9.00;99.90
67163;DHT22;54092;53.088;8.850;2023-12-20T11:28:54;9.10;99.90
67163;DHT22;54092;53.088;8.850;2023-12-20T11:31:20;9.20;99.90
67163;DHT22;54092;53.088;8.850;2023-12-20T11:33:46;9.60;99.90
67163;DHT22;54092;53.088;8.850;2023-12-20T11:36:15;9.70;99.90
67163;DHT22;54092;53.088;8.850;2023-12-20T11:38:55;9.70;99.90
67163;DHT22;54092;53.088;8.850;2023-12-20T11:41:25;10.00;99.90
67163;DHT22;54092;53.088;8.850;2023-12-20T11:43:54;10.10;99.90
67163;DHT22;54092;53.088;8.850;2023-12-20T11:46:20;10.10;99.90
67163;DHT22;54092;53.088;8.850;2023-12-20T11:48:46;10.10;99.90
67163;DHT22;54092;53.088;8.850;2023-12-20T11:51:13;10.30;99.90
67163;DHT22;54092;53.088;8.850;2023-12-20T11:53:42;10.20;99.90
67163;DHT22;54092;53.088;8.850;2023-12-20T11:56:08;10.10;99.90
67163;DHT22;54092;53.088;8.850;2023-12-20T11:58:35;9.70;99.90
67163;DHT22;54092;53.088;8.850;2023-12-20T12:01:01;9.30;99.90
67163;DHT22;54092;53.088;8.850;2023-12-20T12:03:29;9.10;99.90
67163;DHT22;54092;53.088;8.850;2023-12-20T12:05:55;9.30;99.90
67163;DHT22;54092;53.088;8.850;2023-12-20T12:08:21;9.40;99.90
67163;DHT22;54092;53.088;8.850;2023-12-20T12:10:46;9.30;99.90
67163;DHT22;54092;53.088;8.850;2023-12-20T12:13:12;9.20;99.90
67163;DHT22;54092;53.088;8.850;2023-12-20T12:15:39;9.40;99.90
67163;DHT22;54092;53.088;8.850;2023-12-20T12:18:07;9.40;99.90
67163;DHT22;54092;53.088;8.850;2023-12-20T12:20:32;9.30;99.90
67163;DHT22;54092;53.088;8.850;2023-12-20T12:23:05;8.80;99.90
67163;DHT22;54092;53.088;8.850;2023-12-20T12:25:32;8.10;99.90
67163;DHT22;54092;53.088;8.850;2023-12-20T12:27:58;7.70;99.90
67163;DHT22;54092;53.088;8.850;2023-12-20T12:30:25;7.40;99.90
67163;DHT22;54092;53.088;8.850;2023-12-20T12:32:51;7.20;99.90
67163;DHT22;54092;53.088;8.850;2023-12-20T12:35:17;7.20;99.90
67163;DHT22;54092;53.088;8.850;2023-12-20T12:37:43;7.10;99.90
67163;DHT22;54092;53.088;8.850;2023-12-20T12:40:13;7.20;99.90
67163;DHT22;54092;53.088;8.850;2023-12-20T12:42:40;7.20;99.90
67163;DHT22;54092;53.088;8.850;2023-12-20T12:45:06;7.20;99.90
67163;DHT22;54092;53.088;8.850;2023-12-20T12:47:33;7.60;99.90
67163;DHT22;54092;53.088;8.850;2023-12-20T12:49:59;7.70;99.90
67163;DHT22;54092;53.088;8.850;2023-12-20T12:52:24;7.90;99.90
67163;DHT22;54092;53.088;8.850;2023-12-20T12:54:52;8.10;99.90
67163;DHT22;54092;53.088;8.850;2023-12-20T12:57:17;8.60;99.90
67163;DHT22;54092;53.088;8.850;2023-12-20T12:59:44;8.50;99.90
67163;DHT22;54092;53.088;8.850;2023-12-20T13:02:14;8.20;99.90
67163;DHT22;54092;53.088;8.850;2023-12-20T13:04:40;7.90;99.90
67163;DHT22;54092;53.088;8.850;2023-12-20T13:07:07;7.70;99.90
67163;DHT22;54092;53.088;8.850;2023-12-20T13:09:32;7.60;99.90
67163;DHT22;54092;53.088;8.850;2023-12-20T13:11:58;7.70;99.90
67163;DHT22;54092;53.088;8.850;2023-12-20T13:14:24;7.70;99.90
67163;DHT22;54092;53.088;8.850;2023-12-20T13:16:49;7.60;99.90
67163;DHT22;54092;53.088;8.850;2023-12-20T13:19:15;7.70;99.90
67163;DHT22;54092;53.088;8.850;2023-12-20T13:21:41;7.80;99.90
67163;DHT22;54092;53.088;8.850;2023-12-20T13:24:06;7.80;99.90
67163;DHT22;54092;53.088;8.850;2023-12-20T13:26:32;8.10;99.90
67163;DHT22;54092;53.088;8.850;2023-12-20T13:28:58;8.30;99.90
67163;DHT22;54092;53.088;8.850;2023-12-20T13:31:23;8.40;99.90
67163;DHT22;54092;53.088;8.850;2023-12-20T13:33:49;8.40;99.90
67163;DHT22;54092;53.088;8.850;2023-12-20T13:36:14;8.20;99.90
67163;DHT22;54092;53.088;8.850;2023-12-20T13:38:40;7.90;99.90
67163;DHT22;54092;53.088;8.850;2023-12-20T13:41:06;7.60;99.90
67163;DHT22;54092;53.088;8.850;2023-12-20T13:43:32;7.50;99.90
67163;DHT22;54092;53.088;8.850;2023-12-20T13:46:00;7.40;99.90
67163;DHT22;54092;53.088;8.850;2023-12-20T13:48:26;7.40;99.90
67163;DHT22;54092;53.088;8.850;2023-12-20T13:50:51;7.30;99.90
67163;DHT22;54092;53.088;8.850;2023-12-20T13:53:18;7.20;99.90
67163;DHT22;54092;53.088;8.850;2023-12-20T13:55:44;7.20;99.90
67163;DHT22;54092;53.088;8.850;2023-12-20T13:58:10;7.10;99.90
67163;DHT22;54092;53.088;8.850;2023-12-20T14:00:36;7.10;99.90
67163;DHT22;54092;53.088;8.850;2023-12-20T14:03:02;7.10;99.90
67163;DHT22;54092;53.088;8.850;2023-12-20T14:05:28;7.10;99.90
67163;DHT22;54092;53.088;8.850;2023-12-20T14:07:53;7.10;99.90
67163;DHT22;54092;53.088;8.850;2023-12-20T14:10:19;7.10;99.90
67163;DHT22;54092;53.088;8.850;2023-12-20T14:12:44;7.10;99.90
67163;DHT22;54092;53.088;8.850;2023-12-20T14:15:11;7.10;99.90
67163;DHT22;54092;53.088;8.850;2023-12-20T14:17:38;7.10;99.90
67163;DHT22;54092;53.088;8.850;2023-12-20T14:20:06;7.10;99.90
67163;DHT22;54092;53.088;8.850;2023-12-20T14:22:35;7.10;99.90
67163;DHT22;54092;53.088;8.850;2023-12-20T14:25:01;7.00;99.90
67163;DHT22;54092;53.088;8.850;2023-12-20T14:27:28;7.00;99.90
67163;DHT22;54092;53.088;8.850;2023-12-20T14:29:54;7.00;99.90
67163;DHT22;54092;53.088;8.850;2023-12-20T14:32:19;7.00;99.90
67163;DHT22;54092;53.088;8.850;2023-12-20T14:34:45;6.90;99.90
67163;DHT22;54092;53.088;8.850;2023-12-20T14:37:11;6.90;99.90
67163;DHT22;54092;53.088;8.850;2023-12-20T14:39:37;6.90;99.90
67163;DHT22;54092;53.088;8.850;2023-12-20T14:42:07;6.90;99.90
67163;DHT22;54092;53.088;8.850;2023-12-20T14:44:37;6.90;99.90
67163;DHT22;54092;53.088;8.850;2023-12-20T14:47:03;6.80;99.90
67163;DHT22;54092;53.088;8.850;2023-12-20T14:49:29;6.90;99.90
67163;DHT22;54092;53.088;8.850;2023-12-20T14:51:55;6.90;99.90
67163;DHT22;54092;53.088;8.850;2023-12-20T14:54:21;6.90;99.90
67163;DHT22;54092;53.088;8.850;2023-12-20T14:56:46;6.80;99.90
67163;DHT22;54092;53.088;8.850;2023-12-20T14:59:12;6.90;99.90
67163;DHT22;54092;53.088;8.850;2023-12-20T15:01:38;6.90;99.90
67163;DHT22;54092;53.088;8.850;2023-12-20T15:04:06;6.90;99.90
67163;DHT22;54092;53.088;8.850;2023-12-20T15:06:31;6.90;99.90
67163;DHT22;54092;53.088;8.850;2023-12-20T15:08:57;6.90;99.90
67163;DHT22;54092;53.088;8.850;2023-12-20T15:11:23;6.90;99.90
67163;DHT22;54092;53.088;8.850;2023-12-20T15:13:48;6.90;99.90
67163;DHT22;54092;53.088;8.850;2023-12-20T15:16:20;6.90;99.90
67163;DHT22;54092;53.088;8.850;2023-12-20T15:18:45;6.90;99.90
67163;DHT22;54092;53.088;8.850;2023-12-20T15:21:11;6.80;99.90
67163;DHT22;54092;53.088;8.850;2023-12-20T15:23:37;6.90;99.90
67163;DHT22;54092;53.088;8.850;2023-12-20T15:26:02;6.90;99.90
67163;DHT22;54092;53.088;8.850;2023-12-20T15:28:30;6.90;99.90
67163;DHT22;54092;53.088;8.850;2023-12-20T15:30:55;7.00;99.90
67163;DHT22;54092;53.088;8.850;2023-12-20T15:33:21;6.90;99.90
67163;DHT22;54092;53.088;8.850;2023-12-20T15:35:47;6.90;99.90
67163;DHT22;54092;53.088;8.850;2023-12-20T15:38:13;6.90;99.90
67163;DHT22;54092;53.088;8.850;2023-12-20T15:40:38;6.90;99.90
67163;DHT22;54092;53.088;8.850;2023-12-20T15:43:04;6.90;99.90